LiveATC.Net - Listen to live air traffic control over the Internet!


ICAO: KVGT  IATA: VGT   Airport: North Las Vegas Airport
City: Las Vegas   State/Province: Nevada
Country: United States   Continent: North America
KVGT METAR Weather: KVGT 041253Z 31004KT 10SM CLR 18/04 A2994 RMK AO2 SLP139 T01780044
KVGT Flight Activity (FlightAware)
KVGT Airport Info   (AirNav) (iFlightPlanner)
KVGT VFR Sectional Chart   (iFlightPlanner) 
KVGT IFR Low Chart   (iFlightPlanner) 
KVGT Tower
Feed Status: DOWN
Last heard on: 2016-04-28 15:10:05 (5 days 22 hours 26 minutes ago)
KVGT Tower Audio Archives
FacilityFrequency
North Las Vegas Tower125.700


NOTICE

Unauthorized use prohibited. See LiveATC.net Terms of Service


Find LiveATC Audio Streams


Airport/ARTCC Code

Frequency
(e.g., 124.400, 128.75)
Site-wide search

Browse LiveATC Feeds
LiveATC Coverage Map
Top 50 LiveATC Feeds
Bad Weather Areas

LiveATC FAQ
Offer a LiveATC Feed
Contact LiveATC.net
Press Inquiries

LiveATC on iPhone
LiveATC on Android

Windows Phone
Windows 8/10

LiveATC Mobile
(Mobile browser)

ATC Audio Archives
Interesting Recordings

LiveATC Forums


Home Page
About LiveATC.net
Make a Donation
LiveATC Store

Terms of Use
Privacy Policy

Canadian Air Freqs

AIRMETs/SIGMETs

FAA Airport Status
Nat'l Airspace Status
Arrival Demand Charts


Server Software By:
Icecast.org
Liquidsoap